Time;durP1;ratioP1;P1;durP2;ratioP2;P2;SDS_P1;SDS_P2;PMS_P1;PMS_P2;Temp;Humidity;BMP_temperature;BMP_pressure;BME280_temperature;BME280_humidity;BME280_pressure;Samples;Min_cycle;Max_cycle;Signal;HPM_P1;HPM_P2
2023/01/16 00:01:53;;;;;;;2.50;0.97;;;27.70;55.30;;;;;;5053069;28;20176;-75
2023/01/16 00:04:21;;;;;;;3.70;1.17;;;27.60;54.50;;;;;;5050834;28;20194;-75
2023/01/16 00:06:48;;;;;;;4.20;1.13;;;27.70;56.20;;;;;;5051432;28;20265;-75
2023/01/16 00:09:16;;;;;;;2.67;1.07;;;27.80;56.80;;;;;;5050362;28;20180;-74
2023/01/16 00:11:43;;;;;;;3.10;1.00;;;27.80;56.40;;;;;;5050745;28;20175;-73
2023/01/16 00:14:10;;;;;;;3.93;1.20;;;27.30;57.60;;;;;;5051989;28;20670;-73
2023/01/16 00:16:38;;;;;;;2.17;0.93;;;27.20;58.50;;;;;;5051603;28;20222;-73
2023/01/16 00:19:05;;;;;;;3.47;1.23;;;27.20;58.30;;;;;;5047939;28;20220;-76
2023/01/16 00:21:32;;;;;;;5.13;1.37;;;27.30;57.90;;;;;;5050772;28;20179;-74
2023/01/16 00:24:00;;;;;;;6.20;1.20;;;27.50;57.20;;;;;;5050900;28;20199;-71
2023/01/16 00:26:28;;;;;;;4.77;1.03;;;27.60;57.50;;;;;;5050998;28;20175;-72
2023/01/16 00:28:56;;;;;;;6.57;1.50;;;27.50;56.60;;;;;;5052692;28;20176;-73
2023/01/16 00:31:25;;;;;;;5.87;1.17;;;27.60;57.00;;;;;;5051815;28;20175;-74
2023/01/16 00:33:52;;;;;;;4.63;1.37;;;27.50;57.20;;;;;;5043328;28;20658;-73
2023/01/16 00:36:19;;;;;;;7.07;1.20;;;27.50;60.30;;;;;;5051080;28;20195;-70
2023/01/16 00:38:47;;;;;;;6.03;1.03;;;27.60;60.00;;;;;;5052730;28;20298;-73
2023/01/16 00:41:15;;;;;;;3.40;0.93;;;27.80;59.80;;;;;;5052557;28;20183;-72
2023/01/16 00:43:42;;;;;;;3.37;1.00;;;28.10;58.90;;;;;;5050754;28;20188;-73
2023/01/16 00:46:09;;;;;;;4.77;1.00;;;28.10;57.20;;;;;;5051982;28;20176;-74
2023/01/16 00:48:37;;;;;;;2.57;0.83;;;28.20;56.10;;;;;;5050343;28;20180;-70
2023/01/16 00:51:04;;;;;;;4.50;1.07;;;28.50;55.70;;;;;;5051771;28;20226;-70
2023/01/16 00:53:32;;;;;;;4.77;1.10;;;28.40;57.00;;;;;;5052113;28;20172;-77
2023/01/16 00:55:59;;;;;;;4.57;1.23;;;28.20;57.20;;;;;;5052059;28;20219;-73
2023/01/16 00:58:26;;;;;;;2.53;1.03;;;28.40;57.20;;;;;;5052885;28;20213;-74
2023/01/16 01:00:54;;;;;;;6.87;1.17;;;28.30;57.60;;;;;;5046557;28;20181;-74
2023/01/16 01:03:21;;;;;;;4.90;1.00;;;28.00;57.10;;;;;;5051739;28;20180;-76
2023/01/16 01:05:48;;;;;;;7.37;1.00;;;27.90;58.30;;;;;;5050909;28;20195;-73
2023/01/16 01:08:16;;;;;;;7.20;1.20;;;27.90;56.40;;;;;;5048746;28;20195;-75
2023/01/16 01:10:43;;;;;;;4.20;1.13;;;28.00;56.80;;;;;;5054016;28;20180;-74
2023/01/16 01:13:11;;;;;;;4.37;1.30;;;28.00;54.30;;;;;;5053324;28;20634;-73
2023/01/16 01:15:38;;;;;;;1.87;0.80;;;28.10;55.00;;;;;;5071963;28;20175;-74
2023/01/16 01:18:05;;;;;;;1.60;0.87;;;28.30;54.50;;;;;;5059032;28;20214;-71
2023/01/16 01:20:33;;;;;;;2.50;0.77;;;28.40;54.40;;;;;;5071414;28;20225;-72
2023/01/16 01:23:01;;;;;;;3.77;0.90;;;28.50;54.20;;;;;;5060908;28;20188;-70
2023/01/16 01:25:28;;;;;;;2.70;0.83;;;28.50;53.80;;;;;;5045471;28;20176;-73
2023/01/16 01:27:55;;;;;;;4.00;0.90;;;28.50;54.30;;;;;;5071953;28;20179;-77
2023/01/16 01:30:23;;;;;;;5.33;1.13;;;28.20;53.50;;;;;;5040920;28;20234;-71
2023/01/16 01:32:50;;;;;;;4.47;1.30;;;27.90;53.40;;;;;;5054291;28;20543;-74
2023/01/16 01:35:19;;;;;;;3.03;1.00;;;28.30;54.30;;;;;;5069378;28;20187;-73
2023/01/16 01:37:46;;;;;;;3.97;1.20;;;28.30;53.70;;;;;;5071758;28;20222;-72
2023/01/16 01:40:14;;;;;;;4.67;1.27;;;28.30;53.20;;;;;;5059819;28;20233;-73
2023/01/16 01:42:51;;;;;;;2.83;0.70;;;28.30;52.30;;;;;;5061193;28;20538;-73
2023/01/16 01:45:31;;;;;;;2.97;0.87;;;28.40;52.80;;;;;;5061998;28;20289;-75
2023/01/16 01:48:14;;;;;;;2.73;0.87;;;28.60;52.30;;;;;;5066888;28;20214;-74
2023/01/16 01:50:44;;;;;;;4.03;1.60;;;28.70;52.30;;;;;;5061325;28;20655;-75
2023/01/16 01:53:34;;;;;;;3.83;1.00;;;28.60;53.30;;;;;;5062311;28;20664;-78
2023/01/16 01:56:27;;;;;;;2.30;0.70;;;28.70;53.50;;;;;;5070997;28;20239;-74
2023/01/16 01:58:58;;;;;;;3.53;0.90;;;28.60;52.60;;;;;;5061602;28;20212;-75
2023/01/16 02:01:26;;;;;;;3.67;0.97;;;29.00;52.00;;;;;;5064756;28;20595;-75
2023/01/16 02:04:13;;;;;;;2.30;0.97;;;28.80;52.80;;;;;;5071610;28;20699;-74
2023/01/16 02:06:51;;;;;;;3.33;1.00;;;28.70;53.20;;;;;;5040822;28;20199;-75
2023/01/16 02:09:18;;;;;;;4.40;0.83;;;28.30;54.30;;;;;;5048745;28;20676;-75
2023/01/16 02:11:57;;;;;;;2.70;0.90;;;28.40;53.90;;;;;;5051855;28;20677;-75
2023/01/16 02:14:27;;;;;;;2.60;1.20;;;28.60;53.40;;;;;;5054260;28;20194;-74
2023/01/16 02:20:21;;;;;;;5.27;1.00;;;28.80;52.30;;;;;;5055907;28;20186;-74
2023/01/16 02:23:07;;;;;;;5.27;1.10;;;28.90;52.20;;;;;;5035651;28;20176;-74
2023/01/16 02:26:01;;;;;;;2.30;0.90;;;29.30;52.10;;;;;;5046595;28;20211;-74
2023/01/16 02:28:46;;;;;;;2.27;0.83;;;29.20;51.50;;;;;;5055500;28;20253;-74
2023/01/16 02:31:42;;;;;;;3.23;0.80;;;29.30;51.30;;;;;;5054731;28;20168;-73
2023/01/16 02:34:12;;;;;;;3.73;2.37;;;29.20;49.90;;;;;;5055297;28;20277;-73
2023/01/16 02:37:04;;;;;;;4.17;1.60;;;29.40;49.20;;;;;;5055213;28;20172;-73
2023/01/16 02:39:46;;;;;;;2.13;1.20;;;29.20;48.10;;;;;;5055172;28;20267;-73
2023/01/16 02:42:57;;;;;;;3.40;0.90;;;29.10;48.80;;;;;;5055355;28;20168;-73
2023/01/16 02:45:36;;;;;;;2.33;1.00;;;29.70;49.20;;;;;;5034166;28;20199;-73
2023/01/16 02:48:35;;;;;;;3.80;0.87;;;29.20;50.40;;;;;;5052356;28;20318;-71
2023/01/16 02:51:23;;;;;;;5.97;1.17;;;29.20;49.90;;;;;;5043532;28;20319;-71
2023/01/16 02:54:02;;;;;;;3.43;1.13;;;29.50;50.10;;;;;;5044325;28;20182;-69
2023/01/16 02:56:41;;;;;;;4.70;0.97;;;29.50;49.30;;;;;;5055136;28;20176;-69
2023/01/16 02:59:11;;;;;;;3.63;1.07;;;29.90;50.40;;;;;;5054781;28;20712;-70
2023/01/16 03:01:40;;;;;;;2.65;1.00;;;30.20;50.00;;;;;;5038036;28;20264;-74
2023/01/16 03:04:34;;;;;;;5.77;1.10;;;30.30;49.50;;;;;;5055056;28;20176;-71
2023/01/16 03:07:39;;;;;;;3.97;1.30;;;30.00;50.20;;;;;;5054349;28;20222;-70
2023/01/16 03:10:33;;;;;;;7.32;2.05;;;30.00;50.00;;;;;;5054720;28;20190;-71
2023/01/16 03:13:16;;;;;;;3.45;1.10;;;30.30;50.00;;;;;;5053793;28;20172;-73
2023/01/16 03:15:58;;;;;;;3.80;1.00;;;30.20;49.60;;;;;;5054805;28;20179;-71
2023/01/16 03:19:02;;;;;;;4.05;1.05;;;30.00;50.80;;;;;;5054279;28;20203;-70
2023/01/16 03:21:45;;;;;;;3.70;1.05;;;29.80;52.20;;;;;;5053957;28;20183;-70
2023/01/16 03:24:22;;;;;;;4.85;1.23;;;29.80;51.50;;;;;;5054288;28;20251;-70
2023/01/16 03:26:57;;;;;;;3.07;1.10;;;30.40;51.10;;;;;;5054256;28;20183;-72
2023/01/16 03:29:48;;;;;;;4.10;0.82;;;30.20;51.70;;;;;;5054369;28;20182;-73
2023/01/16 03:32:30;;;;;;;5.32;1.00;;;30.30;51.10;;;;;;5054124;28;20241;-71
2023/01/16 03:35:10;;;;;;;3.88;1.00;;;30.30;51.90;;;;;;5054125;28;20263;-74
2023/01/16 03:37:45;;;;;;;3.75;1.10;;;30.50;50.20;;;;;;5050851;28;20203;-70
2023/01/16 03:40:18;;;;;;;5.57;1.30;;;30.40;49.50;;;;;;5052868;28;20254;-73
2023/01/16 03:42:50;;;;;;;5.20;1.27;;;30.30;51.20;;;;;;5054268;28;20168;-70
2023/01/16 03:45:32;;;;;;;5.50;1.13;;;30.30;53.10;;;;;;5052751;28;20651;-73
2023/01/16 03:48:07;;;;;;;3.50;1.02;;;31.00;51.20;;;;;;5050558;28;20176;-71
2023/01/16 03:50:36;;;;;;;5.88;1.55;;;31.10;51.60;;;;;;5051742;28;20223;-74
2023/01/16 03:53:11;;;;;;;5.35;1.08;;;31.30;50.40;;;;;;5052530;28;20176;-71
2023/01/16 03:56:20;;;;;;;3.28;1.05;;;31.30;50.80;;;;;;5043748;28;20183;-71
2023/01/16 03:58:48;;;;;;;2.25;0.85;;;31.70;47.90;;;;;;5048489;28;20226;-70
2023/01/16 04:01:34;;;;;;;6.63;1.17;;;30.60;50.00;;;;;;5053737;28;20647;-73
2023/01/16 04:04:08;;;;;;;4.72;1.00;;;30.60;49.90;;;;;;5052998;28;20317;-71
2023/01/16 04:06:50;;;;;;;4.65;1.20;;;30.30;50.80;;;;;;5053491;28;20176;-70
2023/01/16 04:09:36;;;;;;;4.22;1.55;;;30.70;50.60;;;;;;5051703;28;20191;-70
2023/01/16 04:12:06;;;;;;;2.55;0.85;;;30.40;51.20;;;;;;5053731;28;20190;-72
2023/01/16 04:14:35;;;;;;;4.78;1.27;;;30.30;51.80;;;;;;5052702;28;20184;-73
2023/01/16 04:17:04;;;;;;;3.72;0.90;;;30.60;51.00;;;;;;5050544;28;20653;-70
2023/01/16 04:19:34;;;;;;;3.67;1.00;;;30.30;50.10;;;;;;5050689;28;20179;-72
2023/01/16 04:22:14;;;;;;;2.28;0.77;;;30.70;50.20;;;;;;5050985;28;20206;-71
2023/01/16 04:24:42;;;;;;;5.47;0.88;;;30.40;49.80;;;;;;5052962;28;20205;-71
2023/01/16 04:27:09;;;;;;;3.55;1.20;;;30.70;48.80;;;;;;5052466;28;20233;-72
2023/01/16 04:29:36;;;;;;;4.72;1.23;;;30.90;48.10;;;;;;5053116;28;20291;-70
2023/01/16 04:32:04;;;;;;;6.07;1.20;;;30.90;49.60;;;;;;5052314;28;20230;-73
2023/01/16 04:34:31;;;;;;;6.32;1.30;;;30.60;50.80;;;;;;5050321;28;20194;-69
2023/01/16 04:36:59;;;;;;;4.72;1.20;;;30.30;50.70;;;;;;5051886;28;20230;-70
2023/01/16 04:39:26;;;;;;;4.53;0.93;;;30.30;51.10;;;;;;5052814;28;20183;-70
2023/01/16 04:41:53;;;;;;;4.53;1.08;;;30.50;49.60;;;;;;5052520;28;20193;-71
2023/01/16 04:44:21;;;;;;;2.65;1.25;;;30.50;50.80;;;;;;5050522;28;20813;-72
2023/01/16 04:46:48;;;;;;;3.75;0.88;;;30.80;50.50;;;;;;5051730;28;20190;-71
2023/01/16 04:49:15;;;;;;;3.33;1.10;;;30.70;50.40;;;;;;5051720;28;20176;-73
2023/01/16 04:51:43;;;;;;;4.15;1.15;;;30.30;51.30;;;;;;5052493;28;20226;-72
2023/01/16 04:54:15;;;;;;;6.85;1.00;;;29.90;51.30;;;;;;5052444;28;20234;-71
2023/01/16 04:56:43;;;;;;;3.55;0.98;;;30.10;52.10;;;;;;5043164;28;20179;-77
2023/01/16 04:59:12;;;;;;;3.63;1.10;;;29.90;52.60;;;;;;5052588;28;20807;-74
2023/01/16 05:01:40;;;;;;;3.85;1.00;;;30.30;51.70;;;;;;5050902;28;20184;-70
2023/01/16 05:04:10;;;;;;;7.70;3.78;;;30.90;50.40;;;;;;5051997;28;20562;-72
2023/01/16 05:06:37;;;;;;;9.85;3.25;;;31.20;49.50;;;;;;5047133;28;20176;-72
2023/01/16 05:09:05;;;;;;;4.82;1.02;;;31.30;49.30;;;;;;5051486;28;20200;-74
2023/01/16 05:11:33;;;;;;;3.13;0.90;;;30.80;50.40;;;;;;5052609;28;20180;-73
2023/01/16 05:14:01;;;;;;;5.50;1.00;;;30.80;48.40;;;;;;5051723;28;20184;-72
2023/01/16 05:16:29;;;;;;;3.67;0.85;;;30.60;50.70;;;;;;5051589;28;20656;-71
2023/01/16 05:18:57;;;;;;;3.65;1.00;;;31.10;49.40;;;;;;5051407;28;20230;-70
2023/01/16 05:21:24;;;;;;;2.30;0.77;;;30.80;49.60;;;;;;5051197;28;20539;-73
2023/01/16 05:23:51;;;;;;;4.05;1.02;;;30.50;49.70;;;;;;5052255;28;20642;-74
2023/01/16 05:26:19;;;;;;;6.82;1.67;;;31.00;50.50;;;;;;5052411;28;20178;-73
2023/01/16 05:28:46;;;;;;;4.85;1.63;;;31.20;50.50;;;;;;5051319;28;20218;-74
2023/01/16 05:31:14;;;;;;;4.30;1.73;;;30.80;51.70;;;;;;5041085;28;20172;-71
2023/01/16 05:33:41;;;;;;;5.03;1.10;;;31.50;49.70;;;;;;5052117;28;20208;-72
2023/01/16 05:36:09;;;;;;;4.10;1.10;;;31.40;50.10;;;;;;5048456;28;20733;-71
2023/01/16 05:38:36;;;;;;;5.88;1.30;;;29.90;53.80;;;;;;5047783;28;20215;-73
2023/01/16 05:41:03;;;;;;;6.07;1.20;;;31.10;51.50;;;;;;5048983;28;20184;-75
2023/01/16 05:43:31;;;;;;;9.57;1.58;;;30.90;51.40;;;;;;5051558;28;20184;-72
2023/01/16 05:45:58;;;;;;;5.57;1.48;;;31.30;50.90;;;;;;5047594;28;20536;-72
2023/01/16 05:48:25;;;;;;;3.47;1.08;;;30.80;52.10;;;;;;5053150;28;20187;-73
2023/01/16 05:50:53;;;;;;;6.05;1.40;;;31.20;51.60;;;;;;5053850;28;20232;-75
2023/01/16 05:53:20;;;;;;;4.47;1.40;;;31.10;51.60;;;;;;5053133;28;20186;-75
2023/01/16 05:55:48;;;;;;;5.40;1.40;;;30.50;52.60;;;;;;5054186;28;20626;-77
2023/01/16 05:58:17;;;;;;;3.20;1.15;;;30.20;54.20;;;;;;5055185;28;20691;-72
2023/01/16 06:00:44;;;;;;;4.60;1.05;;;30.10;54.80;;;;;;5057241;28;20176;-71
2023/01/16 06:03:11;;;;;;;4.00;1.20;;;30.40;53.20;;;;;;5051704;28;20365;-74
2023/01/16 06:05:39;;;;;;;3.20;0.85;;;29.70;54.70;;;;;;5055358;28;20184;-76
2023/01/16 06:08:06;;;;;;;5.18;1.25;;;30.20;53.70;;;;;;5054405;28;20191;-74
2023/01/16 06:10:33;;;;;;;4.82;1.20;;;29.30;56.30;;;;;;5055614;28;20519;-73
2023/01/16 06:13:04;;;;;;;5.20;1.10;;;30.30;54.00;;;;;;5055604;28;20247;-75
2023/01/16 06:15:31;;;;;;;7.97;1.70;;;30.30;53.20;;;;;;5055318;28;20199;-70
2023/01/16 06:17:59;;;;;;;6.28;1.42;;;29.30;56.70;;;;;;5055912;28;20214;-74
2023/01/16 06:20:26;;;;;;;7.55;1.50;;;30.50;53.30;;;;;;5055665;28;20630;-73
2023/01/16 06:22:53;;;;;;;6.10;1.35;;;30.70;52.90;;;;;;5055320;28;20180;-74
2023/01/16 06:25:21;;;;;;;7.60;1.40;;;31.40;50.90;;;;;;5055379;28;20180;-73
2023/01/16 06:27:50;;;;;;;5.10;1.27;;;30.70;51.20;;;;;;5055627;28;20199;-75
2023/01/16 06:30:18;;;;;;;5.03;1.10;;;31.20;50.00;;;;;;5055284;28;20756;-69
2023/01/16 06:32:49;;;;;;;5.43;1.40;;;30.30;52.10;;;;;;5055324;28;20271;-74
2023/01/16 06:35:17;;;;;;;4.53;1.23;;;30.80;51.30;;;;;;5055197;28;20543;-75
2023/01/16 06:37:45;;;;;;;2.55;0.80;;;30.30;52.20;;;;;;5051588;28;20218;-76
2023/01/16 06:40:13;;;;;;;6.18;1.33;;;30.20;52.90;;;;;;5052105;28;20658;-73
2023/01/16 06:42:40;;;;;;;7.00;1.35;;;30.70;51.30;;;;;;5053294;28;20650;-71
2023/01/16 06:45:08;;;;;;;5.32;1.38;;;31.20;50.60;;;;;;5052471;28;20188;-73
2023/01/16 06:47:35;;;;;;;3.33;1.08;;;30.80;50.60;;;;;;5054110;28;21146;-72
2023/01/16 06:50:02;;;;;;;5.97;1.00;;;30.10;52.60;;;;;;5052144;28;20226;-74
2023/01/16 06:52:30;;;;;;;4.03;1.20;;;29.90;52.90;;;;;;5059547;28;20187;-74
2023/01/16 06:54:57;;;;;;;4.82;1.30;;;30.20;52.30;;;;;;5061055;28;20188;-72
2023/01/16 06:57:25;;;;;;;3.95;1.17;;;30.20;52.50;;;;;;5055880;28;20203;-75
2023/01/16 06:59:52;;;;;;;10.63;1.77;;;30.70;51.20;;;;;;5048440;28;20655;-72
2023/01/16 07:02:19;;;;;;;3.80;1.20;;;29.80;54.30;;;;;;5056737;28;20256;-70
2023/01/16 07:04:46;;;;;;;7.80;1.30;;;29.40;54.30;;;;;;5063655;28;20723;-73
2023/01/16 07:07:14;;;;;;;8.20;1.40;;;28.60;57.50;;;;;;5058040;28;20179;-72
2023/01/16 07:09:41;;;;;;;7.07;1.50;;;28.80;56.30;;;;;;5059068;28;20190;-69
2023/01/16 07:12:08;;;;;;;5.77;1.20;;;28.40;57.40;;;;;;5066379;28;20635;-72
2023/01/16 07:22:53;;;;;;;6.67;1.20;;;27.80;58.20;;;;;;5061044;28;20270;-73
2023/01/16 07:25:29;;;;;;;7.03;1.23;;;28.50;56.90;;;;;;5074172;28;20190;-79
2023/01/16 07:27:57;;;;;;;3.67;1.00;;;29.50;53.70;;;;;;5065444;28;20257;-72
2023/01/16 07:30:24;;;;;;;5.37;1.40;;;29.30;54.50;;;;;;5069106;28;20215;-74
2023/01/16 07:32:52;;;;;;;6.10;1.53;;;29.10;55.10;;;;;;5067315;28;20228;-75
2023/01/16 07:35:19;;;;;;;5.47;1.40;;;28.40;56.90;;;;;;5073516;28;20649;-74
2023/01/16 07:37:46;;;;;;;3.73;1.10;;;27.80;58.40;;;;;;5058366;28;20199;-75
2023/01/16 07:40:14;;;;;;;6.33;1.20;;;27.30;60.80;;;;;;5056574;28;20180;-75
2023/01/16 07:42:41;;;;;;;3.73;1.20;;;27.40;60.40;;;;;;5070905;28;20289;-74
2023/01/16 07:45:09;;;;;;;3.13;1.17;;;27.30;60.60;;;;;;5065298;28;20521;-74
2023/01/16 07:47:37;;;;;;;3.43;1.17;;;27.00;61.10;;;;;;5045622;28;20188;-75
2023/01/16 07:50:04;;;;;;;5.10;1.27;;;26.80;62.20;;;;;;5065987;28;20188;-73
2023/01/16 07:52:32;;;;;;;5.03;1.43;;;26.80;62.20;;;;;;5055531;28;20187;-75
2023/01/16 07:54:59;;;;;;;3.83;1.30;;;26.50;63.00;;;;;;5058843;28;20188;-69
2023/01/16 07:57:27;;;;;;;5.63;1.50;;;26.60;63.10;;;;;;5052208;28;20195;-69
2023/01/16 07:59:54;;;;;;;5.23;1.27;;;26.60;63.30;;;;;;5054535;28;20530;-68
2023/01/16 08:02:22;;;;;;;3.23;1.50;;;26.40;63.70;;;;;;5053299;28;20184;-68
2023/01/16 08:04:49;;;;;;;6.10;1.70;;;26.40;63.90;;;;;;5049768;28;20640;-69
2023/01/16 08:07:16;;;;;;;5.47;1.53;;;26.40;63.60;;;;;;5052491;28;20171;-71
2023/01/16 08:09:44;;;;;;;4.57;1.33;;;26.30;64.30;;;;;;5051168;28;20188;-70
2023/01/16 08:12:12;;;;;;;4.07;1.23;;;26.30;65.10;;;;;;5052440;28;20238;-69
2023/01/16 08:14:39;;;;;;;5.70;1.30;;;26.30;64.90;;;;;;5051530;28;20267;-69
2023/01/16 08:17:07;;;;;;;6.67;1.50;;;25.90;66.20;;;;;;5053772;28;20183;-69
2023/01/16 08:19:34;;;;;;;5.20;1.37;;;25.80;66.70;;;;;;5051394;28;20184;-73
2023/01/16 08:22:02;;;;;;;4.57;1.30;;;25.80;66.20;;;;;;5052968;28;20180;-70
2023/01/16 08:24:30;;;;;;;5.23;1.37;;;25.50;66.90;;;;;;5050973;28;21002;-68
2023/01/16 08:26:57;;;;;;;6.23;1.50;;;25.60;66.80;;;;;;5049412;28;20187;-71
2023/01/16 08:29:25;;;;;;;4.40;1.27;;;25.30;67.90;;;;;;5050662;28;20267;-70
2023/01/16 08:31:53;;;;;;;5.63;1.50;;;25.30;67.90;;;;;;5052370;28;20196;-72
2023/01/16 08:34:20;;;;;;;6.67;1.30;;;25.20;68.50;;;;;;5052132;28;20188;-70
2023/01/16 08:36:47;;;;;;;4.23;1.30;;;25.10;69.10;;;;;;5052420;28;20184;-71
2023/01/16 08:39:15;;;;;;;3.87;1.47;;;25.00;69.40;;;;;;5048803;28;20212;-72
2023/01/16 08:52:51;;;;;;;8.70;2.23;;;24.60;70.30;;;;;;5049891;28;20207;-73
2023/01/16 08:55:19;;;;;;;5.63;2.20;;;24.60;70.30;;;;;;5050044;28;20191;-71
2023/01/16 08:57:46;;;;;;;6.60;1.50;;;24.60;70.40;;;;;;5052486;28;20212;-70
2023/01/16 09:00:14;;;;;;;5.00;1.70;;;24.70;70.60;;;;;;5060590;28;20198;-73
2023/01/16 09:02:41;;;;;;;7.50;1.70;;;24.70;70.20;;;;;;5062456;28;20188;-75
2023/01/16 09:05:09;;;;;;;6.00;1.40;;;24.60;70.50;;;;;;5051530;28;20188;-70
2023/01/16 09:07:36;;;;;;;5.77;1.13;;;24.60;70.90;;;;;;5053240;28;20187;-70
2023/01/16 09:10:04;;;;;;;6.87;1.83;;;24.50;71.20;;;;;;5054900;28;20206;-75
2023/01/16 09:15:17;;;;;;;7.20;1.80;;;24.40;71.30;;;;;;5053335;28;20250;-71
2023/01/16 09:17:44;;;;;;;6.23;1.40;;;24.40;71.40;;;;;;5057295;28;20215;-75
2023/01/16 09:20:12;;;;;;;9.23;1.60;;;24.40;71.70;;;;;;5052557;28;20207;-69
2023/01/16 09:22:39;;;;;;;3.97;1.40;;;24.40;71.50;;;;;;5052528;28;20195;-72
2023/01/16 09:25:07;;;;;;;6.80;1.60;;;24.30;71.40;;;;;;5057034;28;20176;-76
2023/01/16 09:27:34;;;;;;;7.20;1.43;;;24.30;71.30;;;;;;5052094;28;20190;-72
2023/01/16 09:30:02;;;;;;;4.33;1.53;;;24.30;71.20;;;;;;5052045;28;20588;-76
2023/01/16 09:32:30;;;;;;;4.17;1.53;;;24.30;71.30;;;;;;5051059;28;20638;-78
2023/01/16 09:34:57;;;;;;;4.40;1.40;;;24.30;71.70;;;;;;5051418;28;20184;-77
2023/01/16 09:37:24;;;;;;;11.30;1.90;;;24.40;71.80;;;;;;5051449;28;20226;-73
2023/01/16 09:39:52;;;;;;;6.37;1.60;;;24.30;72.00;;;;;;5051345;28;20187;-76
2023/01/16 09:45:30;;;;;;;8.70;1.57;;;24.30;72.50;;;;;;5045760;28;20186;-75
2023/01/16 09:48:16;;;;;;;6.47;1.53;;;24.30;72.50;;;;;;5050927;28;20187;-76
2023/01/16 09:50:54;;;;;;;3.97;1.43;;;24.30;72.20;;;;;;5050000;28;20219;-77
2023/01/16 09:59:13;;;;;;;5.07;1.40;;;24.30;72.50;;;;;;5045750;28;20227;-73
2023/01/16 10:01:48;;;;;;;5.23;1.50;;;24.30;72.60;;;;;;5046087;28;20203;-72
2023/01/16 10:04:24;;;;;;;8.03;1.30;;;24.30;72.50;;;;;;5047972;28;20195;-75
2023/01/16 10:07:07;;;;;;;6.77;1.20;;;24.30;72.60;;;;;;5043886;28;20290;-70
2023/01/16 10:10:18;;;;;;;9.73;1.83;;;24.20;72.20;;;;;;5050723;28;20658;-71
2023/01/16 10:13:14;;;;;;;6.83;1.60;;;24.10;72.40;;;;;;5047253;28;20646;-75
2023/01/16 10:15:47;;;;;;;5.40;1.47;;;24.00;72.70;;;;;;5034184;28;20603;-77
2023/01/16 10:18:30;;;;;;;6.00;1.40;;;23.90;72.90;;;;;;5049306;28;20207;-75
2023/01/16 10:21:36;;;;;;;8.50;1.77;;;23.90;73.20;;;;;;5051071;28;20187;-78
2023/01/16 10:24:21;;;;;;;5.37;1.40;;;23.90;73.20;;;;;;5046175;28;20234;-80
2023/01/16 10:27:01;;;;;;;7.33;1.37;;;23.90;73.40;;;;;;5047620;28;20172;-76
2023/01/16 10:29:53;;;;;;;6.10;1.60;;;23.90;73.50;;;;;;5049149;28;20195;-80
2023/01/16 10:32:53;;;;;;;5.27;1.30;;;23.90;73.60;;;;;;5046187;28;20188;-75
2023/01/16 10:35:51;;;;;;;4.83;1.17;;;24.00;73.40;;;;;;5038904;28;20230;-77
2023/01/16 10:38:45;;;;;;;3.57;1.47;;;23.90;72.60;;;;;;5044883;28;20213;-76
2023/01/16 10:50:06;;;;;;;7.27;1.30;;;23.90;73.10;;;;;;5055133;28;20203;-75
2023/01/16 10:52:34;;;;;;;7.60;1.23;;;23.80;73.10;;;;;;5052804;28;20184;-78
2023/01/16 10:55:02;;;;;;;5.80;1.20;;;23.80;73.60;;;;;;5053393;28;20236;-76
2023/01/16 10:57:30;;;;;;;6.73;1.23;;;23.70;73.70;;;;;;5054012;28;20701;-77
2023/01/16 11:00:12;;;;;;;5.33;1.20;;;23.70;73.40;;;;;;5053529;28;20263;-77
2023/01/16 11:02:46;;;;;;;6.63;1.13;;;23.70;73.40;;;;;;5054073;28;20252;-79
2023/01/16 11:05:43;;;;;;;4.43;1.40;;;23.70;73.60;;;;;;5051230;28;20198;-74
2023/01/16 11:08:19;;;;;;;7.47;1.30;;;23.70;73.50;;;;;;5051563;28;20215;-77
2023/01/16 11:10:49;;;;;;;5.87;1.33;;;23.70;73.70;;;;;;5060119;28;20541;-78
2023/01/16 11:18:58;;;;;;;6.57;1.20;;;23.60;74.00;;;;;;5062016;28;20253;-78
2023/01/16 11:21:29;;;;;;;5.23;1.27;;;23.60;74.10;;;;;;5061923;28;20188;-78
2023/01/16 11:24:00;;;;;;;8.43;1.40;;;23.60;73.90;;;;;;5058051;28;20668;-78
2023/01/16 11:26:29;;;;;;;7.70;1.10;;;23.60;74.10;;;;;;5052941;28;20205;-73
2023/01/16 11:28:57;;;;;;;4.30;1.20;;;23.60;74.00;;;;;;5054482;28;20647;-76
2023/01/16 11:31:30;;;;;;;6.80;1.37;;;23.60;74.00;;;;;;5054309;28;20506;-77
2023/01/16 11:34:11;;;;;;;5.77;1.30;;;23.60;74.30;;;;;;5052115;28;20180;-75
2023/01/16 11:36:39;;;;;;;4.37;1.20;;;23.50;74.20;;;;;;5053990;28;20184;-78
2023/01/16 11:39:16;;;;;;;4.27;1.23;;;23.50;74.20;;;;;;5053672;28;20634;-77
2023/01/16 11:41:48;;;;;;;4.03;1.37;;;23.50;74.20;;;;;;5054105;28;20237;-75
2023/01/16 11:47:04;;;;;;;4.80;1.37;;;23.50;74.30;;;;;;5050956;28;20237;-77
2023/01/16 11:49:41;;;;;;;7.10;1.73;;;23.50;74.30;;;;;;5053202;28;20176;-77
2023/01/16 11:52:26;;;;;;;2.67;1.10;;;23.40;73.80;;;;;;5048502;28;20239;-77
2023/01/16 11:54:59;;;;;;;7.57;1.33;;;23.30;73.90;;;;;;5052137;28;20180;-75
2023/01/16 11:57:56;;;;;;;5.10;1.20;;;23.30;74.10;;;;;;5055217;28;20183;-76
2023/01/16 12:00:47;;;;;;;7.73;1.33;;;23.30;74.30;;;;;;5034048;28;20184;-74
2023/01/16 12:03:33;;;;;;;6.87;1.53;;;23.30;74.40;;;;;;5051931;28;20581;-73
2023/01/16 12:06:03;;;;;;;5.37;1.00;;;23.30;74.60;;;;;;5055021;28;20529;-74
2023/01/16 12:08:56;;;;;;;6.20;1.27;;;23.30;74.90;;;;;;5052774;28;20207;-76
2023/01/16 12:11:31;;;;;;;5.73;1.30;;;23.30;75.10;;;;;;5046923;28;20199;-73
2023/01/16 12:14:31;;;;;;;8.23;1.77;;;23.30;75.10;;;;;;5045091;28;20214;-73
2023/01/16 12:17:30;;;;;;;6.20;1.20;;;23.30;75.30;;;;;;5039038;28;20256;-74
2023/01/16 12:20:06;;;;;;;9.40;1.50;;;23.30;75.20;;;;;;5052080;28;20226;-71
2023/01/16 12:22:54;;;;;;;6.13;1.30;;;23.30;75.50;;;;;;5043541;28;20183;-71
2023/01/16 12:25:44;;;;;;;7.17;1.80;;;23.20;75.80;;;;;;5052413;28;20237;-74
2023/01/16 12:28:23;;;;;;;7.13;1.40;;;23.30;75.90;;;;;;5050426;28;20646;-75
2023/01/16 12:31:29;;;;;;;7.10;1.50;;;23.20;76.00;;;;;;5057398;28;20208;-76
2023/01/16 12:34:23;;;;;;;8.10;1.80;;;23.20;76.00;;;;;;5053019;28;20195;-72
2023/01/16 12:37:13;;;;;;;6.70;1.43;;;23.20;76.00;;;;;;5051475;28;20185;-77
2023/01/16 12:40:05;;;;;;;6.80;1.40;;;23.20;76.00;;;;;;5048171;28;20269;-78
2023/01/16 12:43:22;;;;;;;5.20;1.40;;;23.20;76.20;;;;;;5053003;28;20222;-77
2023/01/16 12:45:53;;;;;;;7.80;1.63;;;23.10;76.30;;;;;;5063794;28;20249;-72
2023/01/16 12:48:50;;;;;;;11.67;1.50;;;23.10;76.50;;;;;;5052374;28;20596;-76
2023/01/16 12:51:33;;;;;;;6.97;1.33;;;23.10;76.60;;;;;;5047637;28;20301;-76
2023/01/16 12:54:41;;;;;;;6.97;1.47;;;23.10;76.70;;;;;;5051437;28;20191;-77
2023/01/16 12:57:43;;;;;;;6.53;1.50;;;23.20;76.60;;;;;;5048802;28;20210;-75
2023/01/16 13:00:22;;;;;;;8.60;1.67;;;23.20;76.70;;;;;;5051160;28;20573;-77
2023/01/16 13:02:56;;;;;;;6.97;1.60;;;23.20;76.50;;;;;;5049775;28;20241;-69
2023/01/16 13:05:32;;;;;;;9.27;1.90;;;23.20;76.50;;;;;;5052215;28;20263;-70
2023/01/16 13:08:15;;;;;;;7.00;1.30;;;23.20;76.40;;;;;;5052223;28;20202;-70
2023/01/16 13:13:50;;;;;;;6.23;1.53;;;23.20;76.30;;;;;;5052438;28;20306;-68
2023/01/16 13:16:27;;;;;;;4.57;1.20;;;23.20;76.50;;;;;;5048295;28;20191;-71
2023/01/16 13:19:05;;;;;;;4.30;1.13;;;23.10;76.50;;;;;;5049160;28;20217;-74
2023/01/16 13:21:39;;;;;;;5.80;1.60;;;23.10;76.70;;;;;;5051884;28;20197;-71
2023/01/16 13:24:26;;;;;;;7.37;1.87;;;23.10;76.90;;;;;;5052132;28;20184;-72
2023/01/16 13:27:03;;;;;;;8.27;1.53;;;23.00;76.90;;;;;;5051660;28;20184;-70
2023/01/16 13:29:49;;;;;;;6.97;1.67;;;22.90;77.00;;;;;;5045032;28;20780;-74
2023/01/16 13:32:30;;;;;;;5.60;1.40;;;23.00;77.10;;;;;;5054977;28;20179;-73
2023/01/16 13:35:24;;;;;;;6.17;1.53;;;22.90;77.40;;;;;;5072842;28;20159;-68
2023/01/16 13:38:02;;;;;;;10.57;1.80;;;22.90;77.00;;;;;;5042134;28;20206;-70
2023/01/16 13:40:47;;;;;;;7.80;1.63;;;22.80;77.10;;;;;;5050582;28;20175;-73
2023/01/16 13:46:14;;;;;;;9.47;1.67;;;22.90;76.90;;;;;;5052310;28;20234;-71
2023/01/16 13:48:44;;;;;;;7.07;1.40;;;22.90;77.20;;;;;;5052394;28;20547;-73
2023/01/16 13:51:19;;;;;;;7.57;1.90;;;22.80;77.30;;;;;;5052228;28;20235;-76
2023/01/16 13:53:51;;;;;;;6.17;1.10;;;22.80;77.30;;;;;;5052130;28;20206;-74
2023/01/16 13:56:24;;;;;;;5.60;1.53;;;22.80;77.50;;;;;;5047076;28;20184;-74
2023/01/16 13:59:02;;;;;;;5.33;1.60;;;22.80;77.60;;;;;;5052201;28;20207;-74
2023/01/16 14:01:56;;;;;;;8.60;2.43;;;22.70;77.80;;;;;;5051732;28;20846;-75
2023/01/16 14:04:24;;;;;;;10.07;1.60;;;22.60;78.30;;;;;;5052108;28;20662;-74
2023/01/16 14:10:12;;;;;;;6.63;1.80;;;22.50;78.80;;;;;;5054088;28;20237;-69
2023/01/16 14:13:29;;;;;;;6.47;1.50;;;22.50;78.80;;;;;;5053343;28;20256;-75
2023/01/16 14:16:31;;;;;;;5.37;1.50;;;22.40;78.90;;;;;;5042522;28;20184;-72
2023/01/16 14:19:02;;;;;;;5.43;1.50;;;22.40;78.90;;;;;;5052930;28;20302;-72
2023/01/16 14:24:57;;;;;;;5.70;1.60;;;22.30;79.40;;;;;;5023025;28;20231;-75
2023/01/16 14:27:43;;;;;;;7.40;1.70;;;22.30;79.70;;;;;;5035733;28;20183;-69